Time;durP1;ratioP1;P1;durP2;ratioP2;P2;SDS_P1;SDS_P2;PMS_P1;PMS_P2;Temp;Humidity;BMP_temperature;BMP_pressure;BME280_temperature;BME280_humidity;BME280_pressure;Samples;Min_cycle;Max_cycle;Signal;HPM_P1;HPM_P2
2021/09/28 00:01:43;;;;;;;14.98;9.68;;;;;;;18.16;57.31;99832.03;5011915;28;20416;-69
2021/09/28 00:04:09;;;;;;;14.68;10.93;;;;;;;18.17;57.08;99828.84;5013274;28;20057;-69
2021/09/28 00:06:35;;;;;;;15.05;10.27;;;;;;;18.10;57.43;99831.53;5009771;28;20019;-69
2021/09/28 00:09:01;;;;;;;15.23;10.15;;;;;;;18.07;57.77;99823.81;5010992;28;20030;-69
2021/09/28 00:11:26;;;;;;;17.88;10.82;;;;;;;18.06;57.75;99822.97;5006396;28;20033;-69
2021/09/28 00:13:52;;;;;;;17.70;11.55;;;;;;;18.11;57.48;99804.84;5011117;28;20493;-69
2021/09/28 00:16:19;;;;;;;15.07;11.52;;;;;;;18.22;56.98;99802.19;5008256;28;20504;-69
2021/09/28 00:18:44;;;;;;;16.63;10.60;;;;;;;18.42;56.58;99794.44;5006787;28;20030;-69
2021/09/28 00:21:10;;;;;;;19.73;10.75;;;;;;;18.45;56.61;99796.50;5010918;28;20033;-69
2021/09/28 00:23:35;;;;;;;25.25;11.00;;;;;;;18.58;56.32;99779.28;5011521;28;20022;-69
2021/09/28 00:26:01;;;;;;;17.85;10.38;;;;;;;18.54;56.67;99790.56;5011525;28;20018;-69
2021/09/28 00:28:28;;;;;;;21.08;11.27;;;;;;;18.33;58.04;99779.72;5006665;28;20026;-69
2021/09/28 00:30:55;;;;;;;21.73;11.68;;;;;;;18.28;58.24;99789.38;5014502;28;20022;-69
2021/09/28 00:33:21;;;;;;;17.52;12.35;;;;;;;18.33;59.08;99777.69;5007852;28;20500;-69
2021/09/28 00:35:46;;;;;;;20.13;12.30;;;;;;;17.95;59.90;99788.81;5010099;28;20033;-69
2021/09/28 00:38:11;;;;;;;16.92;11.32;;;;;;;17.80;60.13;99784.09;5011685;28;20029;-69
2021/09/28 00:40:37;;;;;;;33.13;13.20;;;;;;;17.86;60.93;99791.06;5010675;28;20493;-69
2021/09/28 00:43:02;;;;;;;23.70;12.85;;;;;;;17.88;62.53;99782.22;5012115;28;20057;-69
2021/09/28 00:45:28;;;;;;;26.52;13.77;;;;;;;17.68;63.43;99777.44;5002019;28;20038;-69
2021/09/28 00:47:53;;;;;;;25.42;12.80;;;;;;;17.53;65.32;99775.50;5011706;28;20030;-70
2021/09/28 00:50:19;;;;;;;28.25;14.55;;;;;;;17.49;66.14;99778.25;5001525;28;20389;-70
2021/09/28 00:52:46;;;;;;;25.30;15.57;;;;;;;17.53;68.38;99784.81;5010616;28;20033;-70
2021/09/28 00:55:15;;;;;;;30.85;13.55;;;;;;;17.79;66.55;99796.59;5009651;28;20032;-70
2021/09/28 00:57:41;;;;;;;23.02;14.45;;;;;;;17.52;67.97;99797.31;5011350;28;20069;-70
2021/09/28 01:00:09;;;;;;;20.67;12.43;;;;;;;17.56;67.25;99791.75;5010105;28;20163;-70
2021/09/28 01:02:36;;;;;;;18.73;13.48;;;;;;;17.44;67.72;99797.56;5011560;28;20045;-70
2021/09/28 01:05:03;;;;;;;25.48;15.70;;;;;;;17.24;67.68;99795.56;5012047;28;20092;-70
2021/09/28 01:07:32;;;;;;;32.15;16.48;;;;;;;17.24;68.32;99789.91;5012084;28;20028;-70
2021/09/28 01:09:57;;;;;;;30.92;17.10;;;;;;;17.15;68.50;99782.84;5011894;28;20030;-70
2021/09/28 01:12:26;;;;;;;30.88;17.42;;;;;;;17.20;67.90;99771.25;5012018;28;20104;-70
2021/09/28 01:14:52;;;;;;;22.33;15.05;;;;;;;17.18;67.80;99765.97;5010425;28;20029;-70
2021/09/28 01:17:19;;;;;;;29.77;17.00;;;;;;;17.27;68.17;99774.22;5009686;28;20444;-70
2021/09/28 01:19:46;;;;;;;32.22;17.55;;;;;;;17.58;66.76;99769.56;5008759;28;20468;-70
2021/09/28 01:22:13;;;;;;;29.85;18.23;;;;;;;17.30;68.93;99773.47;5009995;28;20029;-70
2021/09/28 01:24:40;;;;;;;30.27;19.15;;;;;;;17.11;70.83;99775.13;5010107;28;20032;-70
2021/09/28 01:27:05;;;;;;;23.30;15.45;;;;;;;17.14;68.73;99770.75;5010704;28;20440;-70
2021/09/28 01:29:31;;;;;;;24.95;16.63;;;;;;;17.18;68.92;99770.78;5011654;28;20092;-70
2021/09/28 01:31:57;;;;;;;30.83;16.55;;;;;;;17.18;69.49;99774.44;5011302;28;20113;-70
2021/09/28 01:34:23;;;;;;;26.92;15.82;;;;;;;17.54;68.16;99763.00;5010429;28;20037;-70
2021/09/28 01:36:49;;;;;;;20.98;15.80;;;;;;;17.16;69.15;99759.88;5011220;28;20036;-70
2021/09/28 01:39:15;;;;;;;19.77;15.40;;;;;;;17.27;68.30;99754.44;5009891;28;20025;-70
2021/09/28 01:41:41;;;;;;;21.25;13.85;;;;;;;17.38;68.02;99763.94;5012823;28;20485;-70
2021/09/28 01:44:12;;;;;;;19.00;14.07;;;;;;;17.42;68.22;99758.34;5011214;28;20151;-70
2021/09/28 01:46:44;;;;;;;14.27;11.77;;;;;;;17.39;67.88;99762.75;5011334;28;20025;-70
2021/09/28 01:49:11;;;;;;;28.77;12.50;;;;;;;17.47;67.40;99765.72;5011324;28;20049;-70
2021/09/28 01:51:38;;;;;;;18.30;13.00;;;;;;;17.48;67.38;99770.97;5009143;28;20095;-70
2021/09/28 01:54:04;;;;;;;17.63;11.20;;;;;;;17.35;67.56;99778.00;5011212;28;20076;-70
2021/09/28 01:56:30;;;;;;;20.35;13.55;;;;;;;17.08;69.20;99787.19;5003388;28;20026;-70
2021/09/28 01:58:57;;;;;;;22.90;14.52;;;;;;;16.96;69.51;99798.59;5011298;28;20029;-70
2021/09/28 02:01:23;;;;;;;20.20;13.20;;;;;;;16.61;71.07;99791.75;5011210;28;20097;-70
2021/09/28 02:03:48;;;;;;;17.70;14.43;;;;;;;16.86;70.61;99791.50;5014413;28;20029;-70
2021/09/28 02:06:17;;;;;;;22.65;13.52;;;;;;;16.93;70.75;99790.84;5011116;28;20026;-70
2021/09/28 02:08:42;;;;;;;17.70;13.43;;;;;;;16.59;71.66;99776.38;5008797;28;20461;-70
2021/09/28 02:11:08;;;;;;;17.42;14.45;;;;;;;16.49;71.90;99777.78;5006217;28;20084;-70
2021/09/28 02:13:33;;;;;;;22.35;15.70;;;;;;;16.41;72.71;99771.16;5011005;28;20036;-70
2021/09/28 02:15:59;;;;;;;20.38;14.65;;;;;;;16.45;72.55;99771.25;5009405;28;20508;-70
2021/09/28 02:18:24;;;;;;;22.25;13.73;;;;;;;16.50;72.53;99783.06;5011038;28;20038;-70
2021/09/28 02:20:50;;;;;;;15.80;14.13;;;;;;;16.53;72.29;99781.47;5009519;28;20029;-70
2021/09/28 02:23:15;;;;;;;24.35;13.70;;;;;;;16.41;72.17;99791.75;5011069;28;20109;-70
2021/09/28 02:25:41;;;;;;;19.85;14.82;;;;;;;16.31;72.87;99783.84;5010115;28;20026;-70
2021/09/28 02:28:06;;;;;;;21.38;14.82;;;;;;;16.25;73.29;99779.63;5009688;28;20022;-70
2021/09/28 02:30:32;;;;;;;20.15;15.32;;;;;;;16.42;73.23;99784.06;5010332;28;20053;-70
2021/09/28 02:32:57;;;;;;;16.92;13.38;;;;;;;16.50;72.17;99773.75;5010943;28;20091;-70
2021/09/28 02:35:23;;;;;;;22.80;14.27;;;;;;;16.45;71.74;99771.25;5010774;28;20025;-70
2021/09/28 02:37:48;;;;;;;23.55;15.85;;;;;;;16.46;72.25;99772.88;5010898;28;20026;-70
2021/09/28 02:40:14;;;;;;;23.40;15.70;;;;;;;16.38;72.73;99775.50;5010975;28;20026;-70
2021/09/28 02:42:41;;;;;;;20.42;14.10;;;;;;;16.28;73.51;99773.25;5009638;28;20061;-70
2021/09/28 02:45:07;;;;;;;27.65;16.33;;;;;;;16.35;73.35;99766.97;5010594;28;20036;-70
2021/09/28 02:47:33;;;;;;;25.80;15.15;;;;;;;16.35;72.60;99766.97;5010973;28;20033;-70
2021/09/28 02:49:58;;;;;;;19.40;14.35;;;;;;;16.46;72.78;99770.84;5009266;28;20455;-70
2021/09/28 02:52:24;;;;;;;21.55;14.73;;;;;;;16.58;72.96;99777.56;5010695;28;20038;-70
2021/09/28 02:54:50;;;;;;;21.10;14.80;;;;;;;16.54;72.88;99769.03;5009153;28;20114;-70
2021/09/28 02:57:15;;;;;;;22.80;14.93;;;;;;;16.46;73.29;99767.22;5012577;28;20033;-70
2021/09/28 02:59:42;;;;;;;27.05;15.70;;;;;;;16.42;73.77;99770.78;5013070;28;20408;-70
2021/09/28 03:02:07;;;;;;;21.40;15.43;;;;;;;16.51;73.63;99773.41;5008335;28;20030;-70
2021/09/28 03:04:33;;;;;;;24.00;15.05;;;;;;;16.45;73.19;99772.03;5009980;28;20116;-70
2021/09/28 03:06:58;;;;;;;19.33;14.40;;;;;;;16.52;72.45;99766.56;5010146;28;20017;-70
2021/09/28 03:09:24;;;;;;;23.83;15.75;;;;;;;16.61;72.84;99774.81;5013527;28;20025;-70
2021/09/28 03:11:49;;;;;;;18.00;15.38;;;;;;;16.69;73.00;99781.44;5008188;28;20030;-70
2021/09/28 03:14:17;;;;;;;28.40;15.20;;;;;;;16.58;73.53;99769.91;5013943;28;20026;-70
2021/09/28 03:16:43;;;;;;;21.95;15.65;;;;;;;16.65;72.73;99772.09;5012690;28;20484;-70
2021/09/28 03:19:08;;;;;;;20.83;16.00;;;;;;;16.67;73.57;99781.84;5011975;28;20065;-70
2021/09/28 03:21:34;;;;;;;21.27;14.10;;;;;;;16.65;72.69;99777.72;5018164;28;20021;-70
2021/09/28 03:23:59;;;;;;;17.80;15.25;;;;;;;16.58;73.40;99775.56;5016081;28;20088;-70
2021/09/28 03:26:25;;;;;;;20.83;15.88;;;;;;;16.59;73.11;99784.84;5012482;28;20029;-70
2021/09/28 03:28:52;;;;;;;18.65;15.52;;;;;;;16.54;74.16;99783.16;5013320;28;20026;-70
2021/09/28 03:31:18;;;;;;;22.30;16.17;;;;;;;16.53;73.81;99781.47;5015458;28;20048;-70
2021/09/28 03:33:43;;;;;;;23.58;15.50;;;;;;;16.60;73.17;99784.47;5012843;28;20054;-70
2021/09/28 03:36:09;;;;;;;20.58;14.45;;;;;;;16.55;73.06;99796.06;5013075;28;20554;-70
2021/09/28 03:38:34;;;;;;;19.85;15.18;;;;;;;16.43;73.79;99788.53;5013331;28;20558;-70
2021/09/28 03:41:00;;;;;;;18.48;14.73;;;;;;;16.53;73.08;99802.09;5011581;28;20491;-70
2021/09/28 03:43:26;;;;;;;22.20;16.20;;;;;;;16.41;73.44;99808.69;5013110;28;20054;-70
2021/09/28 03:45:54;;;;;;;22.52;13.60;;;;;;;16.53;72.74;99806.91;5005535;28;20417;-70
2021/09/28 03:48:20;;;;;;;24.58;14.90;;;;;;;16.52;72.86;99805.25;5003245;28;20033;-70
2021/09/28 03:50:46;;;;;;;23.40;16.52;;;;;;;16.39;72.95;99802.56;5005909;28;20093;-70
2021/09/28 03:53:11;;;;;;;24.77;16.52;;;;;;;16.35;73.37;99810.13;5011514;28;20021;-70
2021/09/28 03:55:37;;;;;;;27.25;15.80;;;;;;;16.30;73.21;99807.59;5006154;28;20505;-70
2021/09/28 03:58:03;;;;;;;24.48;17.60;;;;;;;16.24;73.24;99804.22;5010253;28;20397;-70
2021/09/28 04:00:28;;;;;;;30.60;18.85;;;;;;;16.26;72.82;99803.84;5012811;28;20056;-70
2021/09/28 04:02:54;;;;;;;29.75;17.60;;;;;;;16.42;72.02;99799.03;5013294;28;20032;-70
2021/09/28 04:05:19;;;;;;;39.28;16.80;;;;;;;16.26;72.29;99801.03;5013075;28;20029;-70
2021/09/28 04:07:45;;;;;;;25.02;17.10;;;;;;;16.17;72.97;99797.56;5012973;28;20018;-70
2021/09/28 04:10:11;;;;;;;33.53;18.60;;;;;;;16.33;72.12;99798.38;5011469;28;20163;-70
2021/09/28 04:12:38;;;;;;;32.38;18.10;;;;;;;16.30;72.30;99801.94;5010411;28;20029;-70
2021/09/28 04:15:05;;;;;;;49.72;24.27;;;;;;;16.18;72.45;99802.06;5010259;28;20496;-70
2021/09/28 04:17:31;;;;;;;36.85;25.17;;;;;;;16.31;71.75;99805.56;5011591;28;20029;-70
2021/09/28 04:19:57;;;;;;;39.17;28.88;;;;;;;16.01;73.06;99801.22;5010384;28;20038;-70
2021/09/28 04:22:23;;;;;;;56.63;29.17;;;;;;;15.67;73.94;99809.16;5011436;28;20026;-70
2021/09/28 04:24:49;;;;;;;45.65;28.45;;;;;;;15.77;73.49;99808.63;5010771;28;20021;-70
2021/09/28 04:27:17;;;;;;;36.15;26.17;;;;;;;15.65;74.21;99815.19;5008901;28;20584;-70
2021/09/28 04:29:42;;;;;;;43.85;26.92;;;;;;;15.60;75.17;99809.78;5000095;28;20032;-70
2021/09/28 04:32:08;;;;;;;38.50;24.33;;;;;;;15.53;75.60;99815.25;5011462;28;20477;-70
2021/09/28 04:34:34;;;;;;;34.13;24.67;;;;;;;15.66;75.14;99816.00;5011428;28;20559;-70
2021/09/28 04:36:59;;;;;;;38.33;25.65;;;;;;;15.78;74.22;99821.56;5011182;28;20042;-70
2021/09/28 04:39:25;;;;;;;39.63;26.33;;;;;;;15.79;74.33;99828.03;5012549;28;20026;-70
2021/09/28 04:41:51;;;;;;;40.78;25.75;;;;;;;15.96;74.73;99827.69;5006715;28;20476;-70
2021/09/28 04:44:16;;;;;;;32.55;24.27;;;;;;;15.91;74.02;99821.50;5004573;28;20117;-70
2021/09/28 04:46:42;;;;;;;37.35;23.73;;;;;;;15.86;74.80;99826.22;5011855;28;20013;-70
2021/09/28 04:49:08;;;;;;;34.70;23.13;;;;;;;15.80;74.90;99824.81;5011970;28;20096;-70
2021/09/28 04:51:33;;;;;;;32.85;22.55;;;;;;;16.01;73.92;99820.97;5009910;28;20551;-70
2021/09/28 04:53:59;;;;;;;34.20;22.80;;;;;;;15.92;75.43;99815.50;5009174;28;20489;-70
2021/09/28 04:56:24;;;;;;;40.05;21.60;;;;;;;15.92;75.44;99817.50;5009368;28;20137;-70
2021/09/28 04:58:49;;;;;;;33.60;22.10;;;;;;;15.92;75.86;99814.69;5004943;28;20044;-70
2021/09/28 05:01:15;;;;;;;42.35;25.40;;;;;;;15.97;76.28;99820.06;5003843;28;20026;-70
2021/09/28 05:03:41;;;;;;;33.42;22.65;;;;;;;16.21;76.06;99833.16;4994949;28;20029;-70
2021/09/28 05:06:07;;;;;;;36.92;21.98;;;;;;;16.24;74.91;99834.44;4991175;28;20389;-70
2021/09/28 05:08:33;;;;;;;36.17;24.02;;;;;;;16.26;76.15;99849.00;5004494;28;20030;-70
2021/09/28 05:10:58;;;;;;;32.03;24.85;;;;;;;16.34;74.30;99844.34;5008297;28;20025;-72
2021/09/28 05:13:24;;;;;;;32.17;25.73;;;;;;;16.37;73.84;99840.81;5006079;28;20437;-71
2021/09/28 05:15:49;;;;;;;32.70;24.75;;;;;;;16.49;74.07;99837.06;5004693;28;20481;-70
2021/09/28 05:18:15;;;;;;;35.67;24.00;;;;;;;16.51;74.76;99837.50;5011539;28;20412;-71
2021/09/28 05:20:40;;;;;;;34.08;23.95;;;;;;;16.44;75.42;99843.81;5011441;28;20112;-70
2021/09/28 05:23:06;;;;;;;29.55;24.23;;;;;;;16.55;74.36;99849.72;5011801;28;20089;-70
2021/09/28 05:25:31;;;;;;;26.13;22.83;;;;;;;16.51;74.49;99848.81;5010132;28;20453;-70
2021/09/28 05:27:57;;;;;;;37.38;23.90;;;;;;;16.52;75.14;99839.13;5010687;28;20021;-72
2021/09/28 05:30:23;;;;;;;42.38;23.75;;;;;;;16.62;75.16;99849.88;5009496;28;20519;-74
2021/09/28 05:32:49;;;;;;;27.48;22.38;;;;;;;16.83;74.52;99857.22;4995946;28;20149;-72
2021/09/28 05:35:14;;;;;;;28.15;20.70;;;;;;;16.81;75.00;99865.25;5009739;28;20125;-72
2021/09/28 05:37:40;;;;;;;24.05;19.08;;;;;;;16.82;74.28;99858.41;5002401;28;20501;-72
2021/09/28 05:40:06;;;;;;;28.63;18.20;;;;;;;17.11;73.50;99864.72;5007366;28;20084;-72
2021/09/28 05:42:32;;;;;;;20.98;16.25;;;;;;;17.19;72.64;99862.88;5008978;28;20560;-72
2021/09/28 05:44:57;;;;;;;29.20;18.60;;;;;;;17.13;73.75;99862.34;5008641;28;20022;-72
2021/09/28 05:47:23;;;;;;;19.30;17.20;;;;;;;17.23;73.56;99869.44;5007908;28;20029;-72
2021/09/28 05:49:48;;;;;;;24.25;16.38;;;;;;;17.25;73.14;99864.22;4999502;28;20026;-72
2021/09/28 05:52:16;;;;;;;17.98;15.95;;;;;;;17.22;73.11;99865.78;5008216;28;20018;-72
2021/09/28 05:54:49;;;;;;;26.65;16.33;;;;;;;17.33;72.93;99863.19;5009539;28;20022;-72
2021/09/28 05:57:19;;;;;;;23.90;17.27;;;;;;;17.31;72.62;99859.91;5008413;28;20076;-72
2021/09/28 05:59:45;;;;;;;21.85;15.95;;;;;;;17.33;73.04;99860.38;5010493;28;20084;-72
2021/09/28 06:02:11;;;;;;;19.52;15.07;;;;;;;17.32;72.63;99866.38;5006036;28;20043;-72
2021/09/28 06:04:37;;;;;;;18.98;15.07;;;;;;;17.28;72.40;99874.78;5008607;28;20022;-72
2021/09/28 06:07:03;;;;;;;22.27;15.43;;;;;;;17.07;72.84;99863.84;5020107;28;20033;-72
2021/09/28 06:09:32;;;;;;;19.70;15.10;;;;;;;17.01;73.99;99859.66;5000605;28;20477;-72
2021/09/28 06:11:58;;;;;;;20.92;13.88;;;;;;;17.17;73.82;99862.41;5001657;28;20028;-75
2021/09/28 06:14:23;;;;;;;19.85;14.40;;;;;;;17.22;73.40;99865.78;5011130;28;20018;-73
2021/09/28 06:16:49;;;;;;;22.88;15.15;;;;;;;17.13;73.46;99862.34;5016660;28;20459;-72
2021/09/28 06:19:15;;;;;;;19.30;13.85;;;;;;;17.19;73.13;99866.53;5003915;28;20105;-73
2021/09/28 06:21:43;;;;;;;21.25;14.30;;;;;;;17.16;74.00;99875.75;5007695;28;20096;-73
2021/09/28 06:24:09;;;;;;;28.35;15.65;;;;;;;17.05;73.98;99874.69;5002839;28;20503;-73
2021/09/28 06:26:34;;;;;;;18.27;14.20;;;;;;;16.98;74.31;99873.31;5010356;28;20022;-73
2021/09/28 06:29:00;;;;;;;20.48;14.88;;;;;;;16.90;75.37;99882.00;5007451;28;20022;-73
2021/09/28 06:31:25;;;;;;;21.58;16.00;;;;;;;16.87;74.97;99877.88;4997303;28;20052;-73
2021/09/28 06:33:51;;;;;;;21.95;15.32;;;;;;;16.83;75.37;99880.66;5012827;28;20502;-73
2021/09/28 06:36:16;;;;;;;28.27;16.33;;;;;;;16.84;75.58;99879.47;5014701;28;20026;-73
2021/09/28 06:38:42;;;;;;;22.50;15.75;;;;;;;16.78;75.44;99885.75;5007537;28;20034;-73
2021/09/28 06:41:08;;;;;;;22.15;16.42;;;;;;;16.76;76.25;99888.94;5009769;28;20733;-73
2021/09/28 06:43:33;;;;;;;22.35;16.55;;;;;;;16.74;76.94;99890.50;5002019;28;20046;-73
2021/09/28 06:45:59;;;;;;;31.27;17.60;;;;;;;16.69;76.21;99880.28;5005441;28;20038;-74
2021/09/28 06:48:25;;;;;;;21.55;14.82;;;;;;;16.69;75.76;99883.94;5013501;28;20468;-73
2021/09/28 06:50:51;;;;;;;25.48;14.05;;;;;;;16.64;75.40;99883.41;5011620;28;20040;-73
2021/09/28 06:53:16;;;;;;;22.23;15.77;;;;;;;16.55;76.43;99889.25;5014162;28;20022;-74
2021/09/28 06:55:42;;;;;;;20.20;15.57;;;;;;;16.52;77.11;99889.97;5005898;28;20030;-72
2021/09/28 06:58:07;;;;;;;21.15;15.43;;;;;;;16.47;75.87;99891.09;5010655;28;20101;-72
2021/09/28 07:00:36;;;;;;;22.50;17.00;;;;;;;16.55;76.40;99901.34;5006295;28;20035;-72
2021/09/28 07:03:03;;;;;;;26.23;15.85;;;;;;;16.58;76.25;99894.16;5003074;28;20033;-71
2021/09/28 07:05:32;;;;;;;21.95;15.70;;;;;;;16.52;76.24;99895.59;4997761;28;20404;-72
2021/09/28 07:07:58;;;;;;;24.73;15.63;;;;;;;16.47;77.01;99898.72;5004322;28;20524;-71
2021/09/28 07:10:23;;;;;;;27.75;16.55;;;;;;;16.44;77.73;99905.09;5009058;28;20113;-74
2021/09/28 07:12:49;;;;;;;22.60;16.25;;;;;;;16.44;77.98;99905.91;5009686;28;20030;-72
2021/09/28 07:15:16;;;;;;;22.20;15.30;;;;;;;16.32;77.19;99914.47;5002646;28;20018;-72
2021/09/28 07:17:43;;;;;;;26.17;16.63;;;;;;;16.16;77.01;99911.63;5014058;28;20029;-72
2021/09/28 07:20:09;;;;;;;23.88;15.02;;;;;;;16.14;76.56;99914.81;5004603;28;20041;-72
2021/09/28 07:22:35;;;;;;;39.03;16.23;;;;;;;16.13;76.74;99908.34;5009709;28;20025;-72
2021/09/28 07:25:00;;;;;;;24.23;15.57;;;;;;;16.14;77.13;99903.53;5007777;28;20061;-72
2021/09/28 07:27:26;;;;;;;22.85;17.35;;;;;;;16.32;77.39;99901.19;5010100;28;20402;-72
2021/09/28 07:29:51;;;;;;;20.55;16.45;;;;;;;16.35;77.74;99902.44;5009775;28;20031;-72
2021/09/28 07:32:17;;;;;;;23.30;16.17;;;;;;;16.39;77.25;99909.81;5004340;28;20541;-71
2021/09/28 07:34:43;;;;;;;24.98;17.23;;;;;;;16.31;76.85;99915.66;5009736;28;20026;-71
2021/09/28 07:37:09;;;;;;;22.30;16.67;;;;;;;16.28;77.79;99920.00;5009280;28;20504;-71
2021/09/28 07:39:35;;;;;;;23.10;15.57;;;;;;;16.36;76.64;99916.19;5009205;28;20053;-72
2021/09/28 07:42:00;;;;;;;24.17;16.70;;;;;;;16.37;77.05;99923.47;5011772;28;20057;-72
2021/09/28 07:44:26;;;;;;;27.60;16.27;;;;;;;16.34;76.90;99921.41;5005476;28;20076;-72
2021/09/28 07:46:52;;;;;;;25.55;17.98;;;;;;;16.39;77.21;99921.09;5012446;28;20872;-72
2021/09/28 07:49:18;;;;;;;23.65;16.73;;;;;;;16.49;77.48;99919.75;5000658;28;20038;-72
2021/09/28 07:51:43;;;;;;;26.55;16.98;;;;;;;16.57;75.90;99915.13;5013464;28;20018;-72
2021/09/28 07:54:09;;;;;;;33.55;16.35;;;;;;;16.59;74.69;99918.38;5012927;28;20029;-73
2021/09/28 07:56:34;;;;;;;21.15;15.60;;;;;;;16.61;74.68;99916.00;5012337;28;20492;-73
2021/09/28 07:58:59;;;;;;;21.05;16.10;;;;;;;16.77;73.96;99912.34;5007997;28;20065;-75
2021/09/28 08:01:25;;;;;;;20.23;16.40;;;;;;;16.92;73.05;99924.81;5010275;28;20022;-75
2021/09/28 08:03:51;;;;;;;19.92;15.70;;;;;;;16.93;72.32;99917.97;5016203;28;20017;-75
2021/09/28 08:06:17;;;;;;;25.85;17.20;;;;;;;16.95;73.36;99916.44;5004411;28;20031;-73
2021/09/28 08:08:42;;;;;;;19.70;14.85;;;;;;;16.93;73.81;99918.81;5002194;28;20503;-75
2021/09/28 08:11:08;;;;;;;21.08;15.65;;;;;;;16.84;74.35;99915.34;5002917;28;20026;-75
2021/09/28 08:13:34;;;;;;;24.75;15.45;;;;;;;17.06;73.67;99916.69;5011216;28;20029;-75
2021/09/28 08:16:00;;;;;;;20.50;15.85;;;;;;;17.14;73.84;99920.53;5010526;28;20382;-73
2021/09/28 08:18:25;;;;;;;21.95;17.17;;;;;;;17.03;74.16;99916.63;5007898;28;20138;-74
2021/09/28 08:20:51;;;;;;;20.20;14.80;;;;;;;17.25;72.14;99920.75;5006431;28;20026;-74
2021/09/28 08:23:17;;;;;;;31.50;17.27;;;;;;;17.09;72.65;99923.63;4999040;28;20441;-73
2021/09/28 08:26:00;;;;;;;21.73;16.55;;;;;;;16.89;74.08;99917.88;4998879;28;20022;-73
2021/09/28 08:31:11;;;;;;;23.73;16.38;;;;;;;17.06;73.73;99921.53;4999744;28;20088;-72
2021/09/28 08:33:38;;;;;;;21.83;17.25;;;;;;;17.06;74.27;99915.88;5006991;28;20463;-73
2021/09/28 08:36:05;;;;;;;22.98;16.73;;;;;;;17.15;73.68;99915.69;5009716;28;20022;-74
2021/09/28 08:38:31;;;;;;;22.30;17.40;;;;;;;17.21;73.88;99911.38;5003250;28;20037;-76
2021/09/28 08:40:58;;;;;;;26.50;17.50;;;;;;;17.20;74.70;99915.41;5002900;28;20508;-74
2021/09/28 08:43:24;;;;;;;21.85;14.35;;;;;;;17.25;72.02;99921.59;5004780;28;20477;-75
2021/09/28 08:45:49;;;;;;;23.00;15.93;;;;;;;17.29;72.38;99910.34;4998187;28;20097;-73
2021/09/28 08:48:19;;;;;;;23.00;17.05;;;;;;;17.38;71.32;99912.97;4996356;28;20017;-74
2021/09/28 08:50:49;;;;;;;23.33;18.05;;;;;;;17.39;73.26;99906.13;5011098;28;20037;-73
2021/09/28 08:53:16;;;;;;;26.48;18.63;;;;;;;17.51;73.61;99914.47;5012335;28;20148;-72
2021/09/28 08:55:42;;;;;;;26.67;18.33;;;;;;;17.56;74.10;99904.03;5011554;28;20088;-73
2021/09/28 08:58:22;;;;;;;21.70;17.38;;;;;;;17.63;73.46;99909.84;5006951;28;20014;-73
2021/09/28 09:00:51;;;;;;;27.23;17.30;;;;;;;17.74;71.52;99902.41;5007245;28;20555;-73
2021/09/28 09:03:28;;;;;;;25.38;18.42;;;;;;;17.83;72.14;99905.00;5016773;28;20121;-72
2021/09/28 09:05:56;;;;;;;24.05;17.02;;;;;;;17.81;73.08;99907.38;5002619;28;20033;-75
2021/09/28 09:08:27;;;;;;;26.33;18.40;;;;;;;17.95;72.45;99902.00;5010521;28;20030;-73
2021/09/28 09:11:13;;;;;;;19.42;15.98;;;;;;;17.79;71.09;99910.56;5010760;28;20026;-70
2021/09/28 09:13:39;;;;;;;21.23;16.52;;;;;;;17.96;69.59;99903.63;5002323;28;20428;-72
2021/09/28 09:16:07;;;;;;;24.80;17.40;;;;;;;17.89;72.57;99899.84;5005141;28;20053;-70
2021/09/28 09:18:34;;;;;;;23.80;17.02;;;;;;;17.99;71.61;99899.25;5010105;28;20067;-69
2021/09/28 09:21:04;;;;;;;23.83;17.90;;;;;;;17.96;71.21;99902.78;5004812;28;20030;-69
2021/09/28 09:23:32;;;;;;;19.73;16.40;;;;;;;17.94;71.63;99896.69;5005504;28;20092;-71
2021/09/28 09:26:14;;;;;;;26.00;16.95;;;;;;;17.96;70.83;99900.81;4997386;28;20203;-71
2021/09/28 09:28:50;;;;;;;22.48;16.70;;;;;;;17.93;70.98;99897.91;5000699;28;20035;-70
2021/09/28 09:31:34;;;;;;;22.63;16.60;;;;;;;17.87;71.03;99899.41;5007402;28;20488;-71
2021/09/28 09:34:19;;;;;;;27.25;18.00;;;;;;;18.05;70.43;99894.91;5013990;28;20056;-71
2021/09/28 09:37:17;;;;;;;23.05;15.65;;;;;;;18.03;69.00;99900.16;5000701;28;20117;-71
2021/09/28 09:39:51;;;;;;;21.10;16.38;;;;;;;18.10;69.42;99894.63;5000074;28;20555;-70
2021/09/28 09:42:17;;;;;;;19.80;16.27;;;;;;;18.15;69.44;99899.13;5009743;28;20588;-70
2021/09/28 09:44:43;;;;;;;20.10;16.20;;;;;;;18.17;68.87;99902.44;5005144;28;20030;-70
2021/09/28 09:47:35;;;;;;;26.73;16.73;;;;;;;18.40;68.78;99903.63;5001959;28;20049;-69
2021/09/28 09:50:16;;;;;;;22.75;14.63;;;;;;;18.38;67.38;99901.16;4992900;28;20026;-69
2021/09/28 09:53:07;;;;;;;21.23;17.08;;;;;;;18.38;67.97;99906.81;4997917;28;20053;-69
2021/09/28 09:55:35;;;;;;;18.63;16.35;;;;;;;18.37;67.21;99900.34;5004436;28;20108;-68
2021/09/28 09:58:03;;;;;;;22.17;16.83;;;;;;;18.55;67.55;99907.53;5006672;28;20037;-68
2021/09/28 10:00:29;;;;;;;20.58;16.35;;;;;;;18.68;67.75;99897.63;5001389;28;20579;-68
2021/09/28 10:02:55;;;;;;;19.50;15.80;;;;;;;18.74;66.64;99898.91;5003553;28;20026;-68
2021/09/28 10:05:21;;;;;;;22.45;18.65;;;;;;;18.60;66.69;99902.34;5002379;28;20425;-69
2021/09/28 10:07:50;;;;;;;25.23;17.63;;;;;;;18.50;67.29;99891.66;4994024;28;20080;-70
2021/09/28 10:10:19;;;;;;;24.27;18.02;;;;;;;18.72;67.24;99895.66;5001513;28;20120;-69
2021/09/28 10:12:45;;;;;;;25.88;19.40;;;;;;;18.75;67.80;99894.06;4996903;28;20018;-69
2021/09/28 10:15:16;;;;;;;22.08;18.33;;;;;;;18.98;66.38;99887.53;5004552;28;20105;-69
2021/09/28 10:17:46;;;;;;;19.33;16.83;;;;;;;18.90;66.49;99893.09;5002460;28;20126;-69
2021/09/28 10:20:20;;;;;;;;;;;;;;;19.12;65.19;99881.25;5006692;28;20037;-69
2021/09/28 10:22:52;;;;;;;23.05;16.83;;;;;;;18.79;66.80;99881.59;5002356;28;19913;-70
2021/09/28 10:28:06;;;;;;;23.38;16.80;;;;;;;18.62;67.26;99882.97;5006680;28;20117;-69
2021/09/28 10:30:35;;;;;;;24.05;16.48;;;;;;;18.77;66.51;99877.50;5002045;28;20483;-71
2021/09/28 10:33:23;;;;;;;21.23;15.38;;;;;;;18.70;65.38;99883.06;5001182;28;20025;-71
2021/09/28 10:36:13;;;;;;;20.67;15.02;;;;;;;18.80;65.07;99882.41;5001259;28;20564;-71
2021/09/28 10:38:47;;;;;;;;;;;;;;;18.82;65.28;99877.16;5000280;28;20026;-71
2021/09/28 10:41:35;;;;;;;20.58;14.90;;;;;;;18.65;65.64;99876.53;5004367;28;20273;-71
2021/09/28 10:44:25;;;;;;;18.77;15.35;;;;;;;18.79;64.92;99869.44;5003294;28;20048;-70
2021/09/28 10:46:51;;;;;;;16.65;14.82;;;;;;;18.64;64.74;99869.22;5008808;28;20606;-70
2021/09/28 10:49:29;;;;;;;22.20;14.10;;;;;;;18.81;63.75;99881.19;5020154;28;20033;-70
2021/09/28 10:52:19;;;;;;;19.13;14.43;;;;;;;18.90;64.83;99869.63;5008622;28;20506;-70
2021/09/28 10:55:03;;;;;;;;;;;;;;;19.05;65.28;99867.81;5008435;28;20480;-70
2021/09/28 10:57:59;;;;;;;16.90;14.77;;;;;;;18.83;65.39;99870.34;5002045;28;19925;-70
2021/09/28 11:00:49;;;;;;;20.15;16.48;;;;;;;18.89;64.82;99865.94;4992712;28;20038;-70
2021/09/28 11:03:16;;;;;;;22.48;15.05;;;;;;;19.03;65.17;99862.53;5002187;28;20536;-70
2021/09/28 11:05:43;;;;;;;17.33;14.52;;;;;;;19.16;64.15;99867.97;5012140;28;20064;-70
2021/09/28 11:08:12;;;;;;;18.70;14.80;;;;;;;19.21;65.66;99864.78;5007706;28;20084;-70
2021/09/28 11:10:38;;;;;;;24.95;15.75;;;;;;;19.36;64.91;99848.78;5008985;28;20022;-70
2021/09/28 11:13:06;;;;;;;20.70;15.18;;;;;;;19.40;64.38;99860.19;5003729;28;20018;-70
2021/09/28 11:15:33;;;;;;;23.20;14.95;;;;;;;19.35;64.54;99850.00;5008113;28;20030;-70
2021/09/28 11:18:18;;;;;;;19.15;14.27;;;;;;;19.49;63.51;99843.69;5006158;28;20022;-70
2021/09/28 11:20:44;;;;;;;17.45;15.00;;;;;;;19.46;63.56;99838.78;5006890;28;20504;-71
2021/09/28 11:23:12;;;;;;;24.02;15.50;;;;;;;19.62;61.01;99839.38;5019364;28;20084;-71
2021/09/28 11:25:40;;;;;;;20.80;15.63;;;;;;;19.54;62.50;99851.84;5002281;28;20029;-71